createdAt,value
2023-04-02T00:00:47.838Z,32.49
2023-04-02T00:01:47.886Z,29.35
2023-04-02T00:02:47.984Z,33.21
2023-04-02T00:03:48.006Z,31.84
2023-04-02T00:04:47.951Z,28.40
2023-04-02T00:05:47.977Z,31.49
2023-04-02T00:06:48.032Z,31.89
2023-04-02T00:07:48.116Z,30.19
2023-04-02T00:08:48.083Z,32.59
2023-04-02T00:09:48.110Z,29.84
2023-04-02T00:10:48.139Z,31.10
2023-04-02T00:11:48.135Z,31.73
2023-04-02T00:12:48.157Z,31.21
2023-04-02T00:13:48.225Z,31.17
2023-04-02T00:14:48.227Z,31.12
2023-04-02T00:15:48.302Z,28.14
2023-04-02T00:16:48.399Z,30.65
2023-04-02T00:17:48.345Z,33.04
2023-04-02T00:18:48.358Z,29.91
2023-04-02T00:19:48.334Z,31.41
2023-04-02T00:20:48.396Z,32.76
2023-04-02T00:21:48.421Z,29.59
2023-04-02T00:22:48.436Z,32.32
2023-04-02T00:23:48.451Z,29.74
2023-04-02T00:24:48.458Z,28.39
2023-04-02T00:25:48.535Z,30.89
2023-04-02T00:26:48.939Z,32.14
2023-04-02T00:27:48.537Z,29.57
2023-04-02T00:28:48.576Z,32.95
2023-04-02T00:29:48.611Z,32.50
2023-04-02T00:30:48.659Z,31.85
2023-04-02T00:31:48.690Z,30.20
2023-04-02T00:32:48.741Z,28.03
2023-04-02T00:33:48.740Z,32.24
2023-04-02T00:34:48.805Z,30.36
2023-04-02T00:35:48.846Z,30.07
2023-04-02T00:36:48.809Z,31.14
2023-04-02T00:37:48.837Z,30.85
2023-04-02T00:38:49.013Z,32.97
2023-04-02T00:39:48.881Z,31.92
2023-04-02T00:40:48.953Z,32.71
2023-04-02T00:41:48.989Z,31.89
2023-04-02T00:42:48.999Z,29.46
2023-04-02T00:43:49.008Z,31.20
2023-04-02T00:44:49.995Z,31.44
2023-04-02T00:45:49.159Z,28.88
2023-04-02T00:46:49.126Z,30.84
2023-04-02T00:47:49.188Z,30.79
2023-04-02T00:48:49.208Z,31.07
2023-04-02T00:49:49.208Z,30.99
2023-04-02T00:50:49.260Z,30.60
2023-04-02T00:51:49.261Z,30.74
2023-04-02T00:52:49.297Z,32.93
2023-04-02T00:53:49.345Z,33.90
2023-04-02T00:54:49.375Z,29.98
2023-04-02T00:55:49.399Z,30.61
2023-04-02T00:56:49.486Z,28.89
2023-04-02T00:57:49.472Z,29.52
2023-04-02T00:58:49.463Z,30.95
2023-04-02T00:59:49.524Z,31.76
2023-04-02T01:00:49.533Z,29.87
2023-04-02T01:01:49.623Z,29.08
2023-04-02T01:02:49.703Z,29.72
2023-04-02T01:03:49.613Z,30.81
2023-04-02T01:04:49.626Z,32.70
2023-04-02T01:05:49.664Z,29.96
2023-04-02T01:06:49.736Z,31.22
2023-04-02T01:07:49.727Z,32.23
2023-04-02T01:08:49.776Z,31.12
2023-04-02T01:09:49.788Z,30.60
2023-04-02T01:10:49.838Z,31.02
2023-04-02T01:11:49.837Z,32.18
2023-04-02T01:12:49.945Z,34.48
2023-04-02T01:13:49.911Z,30.34
2023-04-02T01:14:49.957Z,30.99
2023-04-02T01:15:50.030Z,28.63
2023-04-02T01:16:50.027Z,31.06
2023-04-02T01:17:50.057Z,30.60
2023-04-02T01:18:50.128Z,31.48
2023-04-02T01:19:50.137Z,31.35
2023-04-02T01:20:50.151Z,31.42
2023-04-02T01:21:50.165Z,29.67
2023-04-02T01:22:50.263Z,32.18
2023-04-02T01:23:50.274Z,33.46
2023-04-02T01:24:50.304Z,32.47
2023-04-02T01:25:50.331Z,32.44
2023-04-02T01:26:50.347Z,31.32
2023-04-02T01:27:50.389Z,29.26
2023-04-02T01:28:50.432Z,31.90
2023-04-02T01:29:50.474Z,32.82
2023-04-02T01:30:50.510Z,30.58
2023-04-02T01:31:50.565Z,30.14
2023-04-02T01:32:50.589Z,29.73
2023-04-02T01:33:50.635Z,32.41
2023-04-02T01:34:50.706Z,31.81
2023-04-02T01:35:50.698Z,30.47
2023-04-02T01:36:50.717Z,30.82
2023-04-02T01:37:50.760Z,32.55
2023-04-02T01:38:50.817Z,32.28
2023-04-02T01:39:50.827Z,29.83
2023-04-02T01:40:50.868Z,32.04
2023-04-02T01:41:50.882Z,32.06
2023-04-02T01:42:50.924Z,31.90
2023-04-02T01:43:50.990Z,31.58
2023-04-02T01:44:50.999Z,32.23
2023-04-02T01:45:51.066Z,31.07
2023-04-02T01:46:51.201Z,29.29
2023-04-02T01:47:51.144Z,30.95
2023-04-02T01:48:51.177Z,31.61
2023-04-02T01:49:51.184Z,32.84
2023-04-02T01:50:51.218Z,32.47
2023-04-02T01:51:51.291Z,29.70
2023-04-02T01:52:51.317Z,32.83
2023-04-02T01:53:51.369Z,29.92
2023-04-02T01:54:51.381Z,32.21
2023-04-02T01:55:51.436Z,32.98
2023-04-02T01:56:51.489Z,29.51
2023-04-02T01:57:51.523Z,33.51
2023-04-02T01:58:51.541Z,30.39
2023-04-02T01:59:51.577Z,29.57
2023-04-02T02:00:51.607Z,33.12
2023-04-02T02:01:51.721Z,34.04
2023-04-02T02:02:51.747Z,33.00
2023-04-02T02:03:51.740Z,31.59
2023-04-02T02:04:51.757Z,32.86
2023-04-02T02:05:51.817Z,31.66
2023-04-02T02:06:51.887Z,30.08
2023-04-02T02:07:51.885Z,31.54
2023-04-02T02:08:51.940Z,32.24
2023-04-02T02:09:51.950Z,32.16
2023-04-02T02:10:51.984Z,33.42
2023-04-02T02:11:52.075Z,32.11
2023-04-02T02:12:52.037Z,31.05
2023-04-02T02:13:52.081Z,33.04
2023-04-02T02:14:52.239Z,31.39
2023-04-02T02:15:52.194Z,32.05
2023-04-02T02:16:52.212Z,32.08
2023-04-02T02:17:52.266Z,33.75
2023-04-02T02:18:52.295Z,31.47
2023-04-02T02:19:52.373Z,31.89
2023-04-02T02:20:52.373Z,31.48
2023-04-02T02:21:52.421Z,30.05
2023-04-02T02:22:52.474Z,29.99
2023-04-02T02:23:52.468Z,32.41
2023-04-02T02:24:52.529Z,30.12
2023-04-02T02:25:52.538Z,30.80
2023-04-02T02:26:52.592Z,30.35
2023-04-02T02:27:52.626Z,32.57
2023-04-02T02:28:52.672Z,31.26
2023-04-02T02:29:52.686Z,30.68
2023-04-02T02:30:52.714Z,30.87
2023-04-02T02:31:52.891Z,33.80
2023-04-02T02:32:52.844Z,30.93
2023-04-02T02:33:52.844Z,31.64
2023-04-02T02:34:52.896Z,33.31
2023-04-02T02:35:52.995Z,29.76
2023-04-02T02:36:53.003Z,31.88
2023-04-02T02:37:53.001Z,32.60
2023-04-02T02:38:54.359Z,30.41
2023-04-02T02:39:53.121Z,31.48
2023-04-02T02:40:53.109Z,31.76
2023-04-02T02:41:53.176Z,31.69
2023-04-02T02:42:53.265Z,32.77
2023-04-02T02:43:53.225Z,34.41
2023-04-02T02:44:53.278Z,31.47
2023-04-02T02:45:53.326Z,31.90
2023-04-02T02:46:53.335Z,32.55
2023-04-02T02:47:53.409Z,33.04
2023-04-02T02:48:53.377Z,31.76
2023-04-02T02:49:53.450Z,32.20
2023-04-02T02:50:53.452Z,32.05
2023-04-02T02:51:53.575Z,30.86
2023-04-02T02:52:53.535Z,30.27
2023-04-02T02:53:53.579Z,32.39
2023-04-02T02:54:53.630Z,31.36
2023-04-02T02:55:53.673Z,33.36
2023-04-02T02:56:53.744Z,29.60
2023-04-02T02:57:53.768Z,33.23
2023-04-02T02:58:53.782Z,33.08
2023-04-02T02:59:53.800Z,32.52
2023-04-02T03:00:53.853Z,32.50
2023-04-02T03:01:53.905Z,32.63
2023-04-02T03:02:54.036Z,30.68
2023-04-02T03:03:54.229Z,32.50
2023-04-02T03:04:54.007Z,32.22
2023-04-02T03:05:54.070Z,32.22
2023-04-02T03:06:54.096Z,32.86
2023-04-02T03:07:54.164Z,31.18
2023-04-02T03:08:54.165Z,31.73
2023-04-02T03:09:54.195Z,30.49
2023-04-02T03:10:54.263Z,32.09
2023-04-02T03:11:54.292Z,32.62
2023-04-02T03:12:54.335Z,30.29
2023-04-02T03:13:54.359Z,31.43
2023-04-02T03:14:54.429Z,32.93
2023-04-02T03:15:54.505Z,30.54
2023-04-02T03:16:54.488Z,31.85
2023-04-02T03:17:54.560Z,30.91
2023-04-02T03:18:54.546Z,30.77
2023-04-02T03:19:54.619Z,31.99
2023-04-02T03:20:54.622Z,32.77
2023-04-02T03:21:54.635Z,33.92
2023-04-02T03:22:54.673Z,32.86
2023-04-02T03:23:54.748Z,32.06
2023-04-02T03:24:54.791Z,32.48
2023-04-02T03:25:54.799Z,31.96
2023-04-02T03:26:54.870Z,31.28
2023-04-02T03:27:54.916Z,31.53
2023-04-02T03:28:54.914Z,31.46
2023-04-02T03:29:54.991Z,31.49
2023-04-02T03:30:55.018Z,31.53
2023-04-02T03:31:55.075Z,32.01
2023-04-02T03:32:55.143Z,32.52
2023-04-02T03:33:55.172Z,33.88
2023-04-02T03:34:55.197Z,30.88
2023-04-02T03:35:55.247Z,31.39
2023-04-02T03:36:55.285Z,32.64
2023-04-02T03:37:55.375Z,30.67
2023-04-02T03:38:55.404Z,33.57
2023-04-02T03:39:55.465Z,34.59
2023-04-02T03:40:55.511Z,33.25
2023-04-02T03:41:55.581Z,32.90
2023-04-02T03:42:55.598Z,30.87
2023-04-02T03:43:55.645Z,33.46
2023-04-02T03:44:55.705Z,33.01
2023-04-02T03:45:55.725Z,31.41
2023-04-02T03:46:55.781Z,33.01
2023-04-02T03:47:55.823Z,33.06
2023-04-02T03:48:55.840Z,32.65
2023-04-02T03:49:55.902Z,33.71
2023-04-02T03:50:55.956Z,31.76
2023-04-02T03:51:56.072Z,30.49
2023-04-02T03:52:56.019Z,33.09
2023-04-02T03:53:56.076Z,33.91
2023-04-02T03:54:56.079Z,32.41
2023-04-02T03:55:56.144Z,31.43
2023-04-02T03:56:56.227Z,32.95
2023-04-02T03:57:56.208Z,32.75
2023-04-02T03:58:56.254Z,33.36
2023-04-02T03:59:56.324Z,33.62
2023-04-02T04:00:56.354Z,30.64
2023-04-02T04:01:56.442Z,33.21
2023-04-02T04:02:56.482Z,34.46
2023-04-02T04:03:56.534Z,32.10
2023-04-02T04:04:56.501Z,34.78
2023-04-02T04:05:56.568Z,33.08
2023-04-02T04:06:56.650Z,32.48
2023-04-02T04:07:56.645Z,30.58
2023-04-02T04:08:56.698Z,32.39
2023-04-02T04:09:56.734Z,33.25
2023-04-02T04:10:56.781Z,30.57
2023-04-02T04:11:56.785Z,32.72
2023-04-02T04:12:56.823Z,33.43
2023-04-02T04:13:56.870Z,31.16
2023-04-02T04:14:56.904Z,32.97
2023-04-02T04:15:56.949Z,32.43
2023-04-02T04:16:57.034Z,33.01
2023-04-02T04:17:57.039Z,31.98
2023-04-02T04:18:57.067Z,32.35
2023-04-02T04:19:57.082Z,32.43
2023-04-02T04:20:57.187Z,32.76
2023-04-02T04:21:57.189Z,30.99
2023-04-02T04:22:57.199Z,34.57
2023-04-02T04:23:57.249Z,31.70
2023-04-02T04:24:57.314Z,30.09
2023-04-02T04:25:57.345Z,31.78
2023-04-02T04:26:57.431Z,29.85
2023-04-02T04:27:57.437Z,33.78
2023-04-02T04:28:57.464Z,33.24
2023-04-02T04:29:57.519Z,32.32
2023-04-02T04:30:57.556Z,33.76
2023-04-02T04:31:57.630Z,33.77
2023-04-02T04:32:57.690Z,32.52
2023-04-02T04:33:57.690Z,32.70
2023-04-02T04:34:57.741Z,32.07
2023-04-02T04:35:57.876Z,33.80
2023-04-02T04:36:57.852Z,34.33
2023-04-02T04:37:57.875Z,31.68
2023-04-02T04:38:57.888Z,33.88
2023-04-02T04:39:57.953Z,34.72
2023-04-02T04:40:58.032Z,30.02
2023-04-02T04:41:58.009Z,32.99
2023-04-02T04:42:58.075Z,30.87
2023-04-02T04:43:58.136Z,31.56
2023-04-02T04:44:58.163Z,33.25
2023-04-02T04:45:58.251Z,33.45
2023-04-02T04:46:58.244Z,33.54
2023-04-02T04:47:58.308Z,34.38
2023-04-02T04:48:58.348Z,35.32
2023-04-02T04:49:58.380Z,30.51
2023-04-02T04:50:58.441Z,33.43
2023-04-02T04:51:58.527Z,31.25
2023-04-02T04:52:58.560Z,34.36
2023-04-02T04:53:58.596Z,30.15
2023-04-02T04:54:58.661Z,31.25
2023-04-02T04:56:05.886Z,32.23
2023-04-02T04:56:59.706Z,32.36
2023-04-02T04:57:58.719Z,32.59
2023-04-02T04:58:58.660Z,32.74
2023-04-02T04:59:58.685Z,31.77
2023-04-02T05:00:58.650Z,33.52
2023-04-02T05:01:58.649Z,31.93
2023-04-02T05:02:58.648Z,34.80
2023-04-02T05:03:58.696Z,33.97
2023-04-02T05:04:58.665Z,33.19
2023-04-02T05:05:58.624Z,33.46
2023-04-02T05:06:58.611Z,31.83
2023-04-02T05:07:59.816Z,33.04
2023-04-02T05:08:58.727Z,32.42
2023-04-02T05:09:58.763Z,34.88
2023-04-02T05:10:58.809Z,31.23
2023-04-02T05:11:58.819Z,32.15
2023-04-02T05:12:58.894Z,31.73
2023-04-02T05:13:58.929Z,32.06
2023-04-02T05:14:58.979Z,32.34
2023-04-02T05:16:01.213Z,34.10
2023-04-02T05:16:59.059Z,32.92
2023-04-02T05:17:59.136Z,32.66
2023-04-02T05:18:59.178Z,34.08
2023-04-02T05:19:59.194Z,32.65
2023-04-02T05:20:59.257Z,33.78
2023-04-02T05:21:59.293Z,32.22
2023-04-02T05:22:59.324Z,29.86
2023-04-02T05:23:59.378Z,33.14
2023-04-02T05:24:59.440Z,31.28
2023-04-02T05:25:59.473Z,33.65
2023-04-02T05:26:59.490Z,33.60
2023-04-02T05:27:59.578Z,31.00
2023-04-02T05:28:59.575Z,32.30
2023-04-02T05:29:59.633Z,33.49
2023-04-02T05:30:59.726Z,32.91
2023-04-02T05:31:59.740Z,30.96
2023-04-02T05:32:59.802Z,31.80
2023-04-02T05:33:59.829Z,31.47
2023-04-02T05:34:59.853Z,30.79
2023-04-02T05:35:59.922Z,34.46
2023-04-02T05:36:59.947Z,32.80
2023-04-02T05:37:59.988Z,31.80
2023-04-02T05:39:00.026Z,29.57
2023-04-02T05:40:00.135Z,33.23
2023-04-02T05:41:00.129Z,33.25
2023-04-02T05:42:00.140Z,31.78
2023-04-02T05:43:00.181Z,31.07
2023-04-02T05:44:00.197Z,32.54
2023-04-02T05:45:00.209Z,33.39
2023-04-02T05:46:00.281Z,34.85
2023-04-02T05:47:00.403Z,30.42
2023-04-02T05:48:00.411Z,31.61
2023-04-02T05:49:00.384Z,32.54
2023-04-02T05:50:00.418Z,30.04
2023-04-02T05:51:00.485Z,32.06
2023-04-02T05:52:00.520Z,33.05
2023-04-02T05:53:00.546Z,32.39
2023-04-02T05:54:00.537Z,32.03
2023-04-02T05:55:00.616Z,30.68
2023-04-02T05:56:00.657Z,31.71
2023-04-02T05:57:00.728Z,32.22
2023-04-02T05:58:21.197Z,31.36
2023-04-02T05:59:01.755Z,31.66
2023-04-02T06:00:00.754Z,32.10
2023-04-02T06:01:00.720Z,32.82
2023-04-02T06:02:00.794Z,32.41
2023-04-02T06:03:00.804Z,31.30
2023-04-02T06:04:00.820Z,30.03
2023-04-02T06:05:00.681Z,31.56
2023-04-02T06:06:00.711Z,33.50
2023-04-02T06:07:00.682Z,35.07
2023-04-02T06:08:00.634Z,34.00
2023-04-02T06:09:00.679Z,29.75
2023-04-02T06:10:00.762Z,30.24
2023-04-02T06:11:00.774Z,32.08
2023-04-02T06:12:00.768Z,32.62
2023-04-02T06:13:00.839Z,30.86
2023-04-02T06:14:00.847Z,30.40
2023-04-02T06:15:00.933Z,30.55
2023-04-02T06:16:00.969Z,33.46
2023-04-02T06:17:01.041Z,31.43
2023-04-02T06:18:01.101Z,30.70
2023-04-02T06:19:01.100Z,31.53
2023-04-02T06:20:01.141Z,31.57
2023-04-02T06:21:01.216Z,32.92
2023-04-02T06:22:01.228Z,33.73
2023-04-02T06:23:01.317Z,33.84
2023-04-02T06:24:01.318Z,30.64
2023-04-02T06:25:01.378Z,33.81
2023-04-02T06:26:01.420Z,32.90
2023-04-02T06:27:01.463Z,32.04
2023-04-02T06:28:01.523Z,33.29
2023-04-02T06:29:01.541Z,32.52
2023-04-02T06:30:01.673Z,31.65
2023-04-02T06:31:01.693Z,32.64
2023-04-02T06:32:01.663Z,31.70
2023-04-02T06:33:01.813Z,31.11
2023-04-02T06:34:01.775Z,33.67
2023-04-02T06:35:01.815Z,29.96
2023-04-02T06:36:01.883Z,31.75
2023-04-02T06:37:01.905Z,31.02
2023-04-02T06:38:01.936Z,29.37
2023-04-02T06:39:01.957Z,34.01
2023-04-02T06:40:02.026Z,31.83
2023-04-02T06:41:02.072Z,31.40
2023-04-02T06:42:02.109Z,31.06
2023-04-02T06:43:02.149Z,29.61
2023-04-02T06:44:02.144Z,30.70
2023-04-02T06:45:02.236Z,29.94
2023-04-02T06:46:02.314Z,31.66
2023-04-02T06:47:02.261Z,29.80
2023-04-02T06:48:02.370Z,31.53
2023-04-02T06:49:02.381Z,31.86
2023-04-02T06:50:02.414Z,32.48
2023-04-02T06:51:02.445Z,30.95
2023-04-02T06:52:02.468Z,32.05
2023-04-02T06:53:02.510Z,33.31
2023-04-02T06:54:02.553Z,32.29
2023-04-02T06:55:02.666Z,30.92
2023-04-02T06:56:02.604Z,31.70
2023-04-02T06:57:02.684Z,32.00
2023-04-02T06:58:02.722Z,30.91
2023-04-02T06:59:02.738Z,31.57
2023-04-02T07:00:02.764Z,32.22
2023-04-02T07:01:02.852Z,30.94
2023-04-02T07:02:02.853Z,30.10
2023-04-02T07:03:02.942Z,33.85
2023-04-02T07:04:02.913Z,33.65
2023-04-02T07:05:02.989Z,29.79
2023-04-02T07:06:02.964Z,31.68
2023-04-02T07:07:03.018Z,31.32
2023-04-02T07:08:03.027Z,32.10
2023-04-02T07:09:03.061Z,32.38
2023-04-02T07:10:03.062Z,32.69
2023-04-02T07:11:03.152Z,31.30
2023-04-02T07:12:03.151Z,32.10
2023-04-02T07:13:03.233Z,30.07
2023-04-02T07:14:03.202Z,30.44
2023-04-02T07:15:03.586Z,31.02
2023-04-02T07:16:03.616Z,29.86
2023-04-02T07:17:03.295Z,33.75
2023-04-02T07:18:03.339Z,29.92
2023-04-02T07:19:03.268Z,31.34
2023-04-02T07:20:03.302Z,32.19
2023-04-02T07:21:03.356Z,29.74
2023-04-02T07:22:03.391Z,33.31
2023-04-02T07:23:03.436Z,32.90
2023-04-02T07:24:03.390Z,31.01
2023-04-02T07:25:03.451Z,30.23
2023-04-02T07:26:03.460Z,32.65
2023-04-02T07:27:03.487Z,29.00
2023-04-02T07:28:03.523Z,31.72
2023-04-02T07:29:03.528Z,31.78
2023-04-02T07:30:03.529Z,28.76
2023-04-02T07:31:03.612Z,31.98
2023-04-02T07:32:03.601Z,30.37
2023-04-02T07:33:03.654Z,30.86
2023-04-02T07:34:03.630Z,30.15
2023-04-02T07:35:03.676Z,29.07
2023-04-02T07:36:03.739Z,30.97
2023-04-02T07:37:03.718Z,30.35
2023-04-02T07:38:03.819Z,30.91
2023-04-02T07:39:03.786Z,32.95
2023-04-02T07:40:03.823Z,28.91
2023-04-02T07:41:03.818Z,32.91
2023-04-02T07:42:03.867Z,32.56
2023-04-02T07:43:03.868Z,31.99
2023-04-02T07:44:03.936Z,30.18
2023-04-02T07:45:05.832Z,29.68
2023-04-02T07:46:03.971Z,30.83
2023-04-02T07:47:04.111Z,32.54
2023-04-02T07:48:04.040Z,29.75
2023-04-02T07:49:04.050Z,31.38
2023-04-02T07:50:04.062Z,29.73
2023-04-02T07:51:04.106Z,31.17
2023-04-02T07:52:04.126Z,31.79
2023-04-02T07:53:04.178Z,31.44
2023-04-02T07:54:04.190Z,30.19
2023-04-02T07:55:04.202Z,28.80
2023-04-02T07:56:04.255Z,30.63
2023-04-02T07:57:04.312Z,29.62
2023-04-02T07:58:04.280Z,29.39
2023-04-02T07:59:04.343Z,28.67
2023-04-02T08:00:04.346Z,28.55
2023-04-02T08:01:04.326Z,31.21
2023-04-02T08:02:04.419Z,30.67
2023-04-02T08:03:04.500Z,30.20
2023-04-02T08:04:04.423Z,30.50
2023-04-02T08:05:04.436Z,31.87
2023-04-02T08:06:04.456Z,31.68
2023-04-02T08:07:05.143Z,31.07
2023-04-02T08:08:04.471Z,29.15
2023-04-02T08:09:04.507Z,29.70
2023-04-02T08:10:04.516Z,27.32
2023-04-02T08:11:04.558Z,28.42
2023-04-02T08:12:04.557Z,30.11
2023-04-02T08:13:04.558Z,32.07
2023-04-02T08:14:04.599Z,28.90
2023-04-02T08:15:04.593Z,30.31
2023-04-02T08:16:04.644Z,28.84
2023-04-02T08:17:04.706Z,29.82
2023-04-02T08:18:04.750Z,27.50
2023-04-02T08:19:04.661Z,29.03
2023-04-02T08:20:04.679Z,28.84
2023-04-02T08:21:04.700Z,28.53
2023-04-02T08:22:04.700Z,31.43
2023-04-02T08:23:04.709Z,30.82
2023-04-02T08:24:04.731Z,29.34
2023-04-02T08:25:04.745Z,29.96
2023-04-02T08:26:04.743Z,30.08
2023-04-02T08:27:04.785Z,30.42
2023-04-02T08:28:04.847Z,29.59
2023-04-02T08:29:04.844Z,29.73
2023-04-02T08:30:04.861Z,30.80
2023-04-02T08:31:05.047Z,31.19
2023-04-02T08:32:04.867Z,30.38
2023-04-02T08:33:04.919Z,30.49
2023-04-02T08:34:04.883Z,30.53
2023-04-02T08:35:04.888Z,30.51
2023-04-02T08:36:04.918Z,29.83
2023-04-02T08:37:04.906Z,30.65
2023-04-02T08:38:04.897Z,28.15
2023-04-02T08:39:04.963Z,30.18
2023-04-02T08:40:04.937Z,32.16
2023-04-02T08:41:04.915Z,29.28
2023-04-02T08:42:04.955Z,29.88
2023-04-02T08:43:04.999Z,30.38
2023-04-02T08:44:04.955Z,30.12
2023-04-02T08:45:20.818Z,31.09
2023-04-02T08:46:05.971Z,31.29
2023-04-02T08:47:04.981Z,31.56
2023-04-02T08:48:05.006Z,31.49
2023-04-02T08:49:04.922Z,31.01
2023-04-02T08:50:04.938Z,32.50
2023-04-02T08:51:04.940Z,31.85
2023-04-02T08:52:04.958Z,31.23
2023-04-02T08:53:04.911Z,32.67
2023-04-02T08:54:04.929Z,30.78
2023-04-02T08:55:04.933Z,31.08
2023-04-02T08:56:04.905Z,31.51
2023-04-02T08:57:04.899Z,31.86
2023-04-02T08:58:04.866Z,31.43
2023-04-02T08:59:04.874Z,31.14
2023-04-02T09:00:04.848Z,30.56
2023-04-02T09:01:04.857Z,31.74
2023-04-02T09:02:04.872Z,31.57
2023-04-02T09:03:04.897Z,32.23
2023-04-02T09:04:04.849Z,31.14
2023-04-02T09:05:04.974Z,31.03
2023-04-02T09:06:04.816Z,32.15
2023-04-02T09:07:04.828Z,32.45
2023-04-02T09:08:04.813Z,32.82
2023-04-02T09:09:04.818Z,30.92
2023-04-02T09:10:04.808Z,31.85
2023-04-02T09:11:04.786Z,31.07
2023-04-02T09:12:04.780Z,31.44
2023-04-02T09:13:04.779Z,31.17
2023-04-02T09:14:04.800Z,30.72
2023-04-02T09:15:04.726Z,31.82
2023-04-02T09:16:04.816Z,30.41
2023-04-02T09:17:04.729Z,31.02
2023-04-02T09:18:04.784Z,30.15
2023-04-02T09:19:04.765Z,29.72
2023-04-02T09:20:04.730Z,29.58
2023-04-02T09:21:04.690Z,27.37
2023-04-02T09:22:04.726Z,28.98
2023-04-02T09:23:04.674Z,27.81
2023-04-02T09:24:05.235Z,27.00
2023-04-02T09:25:04.667Z,29.12
2023-04-02T09:26:05.109Z,27.06
2023-04-02T09:27:04.685Z,28.37
2023-04-02T09:28:04.657Z,27.90
2023-04-02T09:29:04.618Z,26.77
2023-04-02T09:30:04.628Z,27.51
2023-04-02T09:31:06.925Z,25.43
2023-04-02T09:32:04.685Z,25.06
2023-04-02T09:33:04.683Z,26.99
2023-04-02T09:34:04.632Z,25.84
2023-04-02T09:35:12.283Z,26.52
2023-04-02T09:36:05.621Z,26.98
2023-04-02T09:37:04.573Z,27.18
2023-04-02T09:38:04.604Z,27.06
2023-04-02T09:39:04.579Z,25.59
2023-04-02T09:40:04.580Z,24.13
2023-04-02T09:41:04.584Z,25.65
2023-04-02T09:42:06.021Z,28.34
2023-04-02T09:43:04.598Z,25.97
2023-04-02T09:44:04.559Z,26.36
2023-04-02T09:45:04.540Z,25.00
2023-04-02T09:46:04.524Z,26.27
2023-04-02T09:47:04.569Z,25.24
2023-04-02T09:48:04.549Z,25.95
2023-04-02T09:49:04.543Z,26.08
2023-04-02T09:50:04.502Z,27.19
2023-04-02T09:51:04.508Z,27.30
2023-04-02T09:52:04.547Z,27.90
2023-04-02T09:53:04.553Z,29.07
2023-04-02T09:54:04.600Z,29.85
2023-04-02T09:55:04.596Z,30.04
2023-04-02T09:56:04.669Z,28.28
2023-04-02T09:57:04.725Z,30.33
2023-04-02T09:58:04.734Z,28.92
2023-04-02T09:59:04.797Z,26.82
2023-04-02T10:00:04.847Z,27.06
2023-04-02T10:01:04.933Z,27.39
2023-04-02T10:02:04.954Z,27.42
2023-04-02T10:03:05.064Z,27.92
2023-04-02T10:04:05.042Z,27.84
2023-04-02T10:05:05.078Z,26.66
2023-04-02T10:06:05.095Z,25.00
2023-04-02T10:07:05.115Z,29.12
2023-04-02T10:08:05.116Z,26.45
2023-04-02T10:09:05.137Z,26.60
2023-04-02T10:10:05.214Z,28.27
2023-04-02T10:11:05.225Z,27.90
2023-04-02T10:12:05.208Z,27.87
2023-04-02T10:13:05.259Z,27.08
2023-04-02T10:14:05.230Z,25.90
2023-04-02T10:15:05.284Z,26.41
2023-04-02T10:16:05.433Z,25.07
2023-04-02T10:17:05.464Z,28.45
2023-04-02T10:18:05.478Z,27.50
2023-04-02T10:19:05.472Z,25.86
2023-04-02T10:20:05.523Z,26.30
2023-04-02T10:21:05.566Z,25.42
2023-04-02T10:22:05.620Z,26.18
2023-04-02T10:23:06.531Z,28.73
2023-04-02T10:24:05.621Z,29.45
2023-04-02T10:25:05.683Z,27.16
2023-04-02T10:26:05.725Z,27.04
2023-04-02T10:27:05.817Z,25.59
2023-04-02T10:28:05.800Z,27.61
2023-04-02T10:29:07.097Z,28.13
2023-04-02T10:30:05.946Z,28.88
2023-04-02T10:31:06.004Z,27.68
2023-04-02T10:32:06.045Z,29.82
2023-04-02T10:33:06.148Z,27.67
2023-04-02T10:34:06.167Z,27.41
2023-04-02T10:35:06.214Z,25.69
2023-04-02T10:36:06.271Z,26.02
2023-04-02T10:37:06.324Z,26.87
2023-04-02T10:38:06.437Z,28.27
2023-04-02T10:39:06.446Z,29.11
2023-04-02T10:40:06.498Z,28.15
2023-04-02T10:41:06.519Z,26.41
2023-04-02T10:42:06.551Z,28.23
2023-04-02T10:43:06.623Z,27.08
2023-04-02T10:44:19.050Z,28.26
2023-04-02T10:45:07.666Z,28.39
2023-04-02T10:46:06.740Z,28.61
2023-04-02T10:47:06.658Z,26.97
2023-04-02T10:48:06.678Z,26.00
2023-04-02T10:49:06.754Z,23.25
2023-04-02T10:50:06.640Z,26.71
2023-04-02T10:51:06.661Z,25.08
2023-04-02T10:52:06.614Z,29.63
2023-04-02T10:53:06.653Z,27.66
2023-04-02T10:54:06.712Z,25.89
2023-04-02T10:55:06.757Z,29.31
2023-04-02T10:56:06.828Z,27.04
2023-04-02T10:57:06.914Z,26.58
2023-04-02T10:58:06.898Z,25.00
2023-04-02T10:59:06.930Z,27.34
2023-04-02T11:00:06.972Z,26.97
2023-04-02T11:01:07.080Z,28.59
2023-04-02T11:02:07.107Z,29.83
2023-04-02T11:03:07.250Z,29.25
2023-04-02T11:04:07.182Z,30.26
2023-04-02T11:05:07.272Z,31.45
2023-04-02T11:06:07.303Z,31.04
2023-04-02T11:07:14.664Z,30.09
2023-04-02T11:08:08.354Z,30.34
2023-04-02T11:09:07.373Z,30.20
2023-04-02T11:10:07.326Z,30.00
2023-04-02T11:11:07.341Z,29.92
2023-04-02T11:12:07.343Z,27.40
2023-04-02T11:13:07.312Z,25.10
2023-04-02T11:14:07.285Z,27.51
2023-04-02T11:15:07.249Z,29.92
2023-04-02T11:16:07.445Z,29.76
2023-04-02T11:17:07.371Z,29.30
2023-04-02T11:18:07.431Z,28.40
2023-04-02T11:19:07.483Z,28.22
2023-04-02T11:20:07.581Z,30.49
2023-04-02T11:21:07.724Z,28.37
2023-04-02T11:22:07.693Z,29.51
2023-04-02T11:23:07.758Z,27.55
2023-04-02T11:24:07.811Z,29.57
2023-04-02T11:25:07.898Z,29.08
2023-04-02T11:26:07.945Z,28.85
2023-04-02T11:27:08.015Z,25.00
2023-04-02T11:28:08.067Z,26.48
2023-04-02T11:29:08.147Z,25.00
2023-04-02T11:30:08.194Z,26.35
2023-04-02T11:31:08.276Z,27.18
2023-04-02T11:32:08.279Z,30.19
2023-04-02T11:33:08.394Z,34.50
2023-04-02T11:34:08.401Z,32.06
2023-04-02T11:35:08.450Z,35.24
2023-04-02T11:36:08.559Z,36.98
2023-04-02T11:37:08.602Z,36.79
2023-04-02T11:38:08.627Z,38.17
2023-04-02T11:39:17.046Z,37.34
2023-04-02T11:40:09.707Z,37.52
2023-04-02T11:41:08.706Z,37.71
2023-04-02T11:42:08.710Z,34.45
2023-04-02T11:43:08.667Z,33.06
2023-04-02T11:44:08.684Z,33.47
2023-04-02T11:45:08.639Z,37.42
2023-04-02T11:46:08.686Z,37.02
2023-04-02T11:47:08.648Z,36.07
2023-04-02T11:48:08.749Z,37.81
2023-04-02T11:49:08.770Z,38.33
2023-04-02T11:50:08.823Z,39.10
2023-04-02T11:51:08.906Z,39.87
2023-04-02T11:52:12.299Z,39.27
2023-04-02T11:53:08.945Z,40.76
2023-04-02T11:54:08.981Z,39.33
2023-04-02T11:55:08.912Z,42.51
2023-04-02T11:56:08.927Z,42.15
2023-04-02T11:57:08.971Z,42.25
2023-04-02T11:58:08.920Z,41.03
2023-04-02T11:59:08.893Z,42.24
2023-04-02T12:00:08.992Z,40.42
2023-04-02T12:01:08.908Z,42.15
2023-04-02T12:02:08.932Z,43.43
2023-04-02T12:03:08.952Z,42.22
2023-04-02T12:04:08.851Z,43.97
2023-04-02T12:05:08.876Z,43.73
2023-04-02T12:06:08.826Z,43.37
2023-04-02T12:07:08.841Z,44.88
2023-04-02T12:08:08.847Z,45.26
2023-04-02T12:09:08.810Z,45.23
2023-04-02T12:10:08.861Z,44.90
2023-04-02T12:11:08.831Z,44.78
2023-04-02T12:12:08.812Z,47.30
2023-04-02T12:13:08.804Z,45.43
2023-04-02T12:14:08.788Z,46.09
2023-04-02T12:15:08.796Z,45.99
2023-04-02T12:16:08.789Z,47.21
2023-04-02T12:17:09.991Z,44.49
2023-04-02T12:18:08.764Z,48.29
2023-04-02T12:19:08.767Z,46.97
2023-04-02T12:20:08.776Z,47.66
2023-04-02T12:21:08.733Z,47.47
2023-04-02T12:22:08.715Z,46.12
2023-04-02T12:23:08.840Z,46.02
2023-04-02T12:24:08.895Z,45.90
2023-04-02T12:25:08.957Z,46.92
2023-04-02T12:26:08.982Z,46.78
2023-04-02T12:27:09.044Z,47.00
2023-04-02T12:28:09.102Z,47.74
2023-04-02T12:29:09.158Z,48.25
2023-04-02T12:30:09.210Z,48.72
2023-04-02T12:31:09.354Z,49.16
2023-04-02T12:32:09.322Z,47.84
2023-04-02T12:33:09.425Z,47.38
2023-04-02T12:34:09.461Z,47.17
2023-04-02T12:35:09.546Z,49.85
2023-04-02T12:36:09.713Z,47.96
2023-04-02T12:37:09.644Z,47.28
2023-04-02T12:38:09.716Z,48.54
2023-04-02T12:39:09.864Z,47.33
2023-04-02T12:40:09.858Z,49.07
2023-04-02T12:41:09.879Z,48.57
2023-04-02T12:42:09.987Z,47.20
2023-04-02T12:43:10.006Z,47.55
2023-04-02T12:44:10.088Z,48.35
2023-04-02T12:45:10.154Z,48.41
2023-04-02T12:46:10.239Z,47.12
2023-04-02T12:47:10.270Z,47.41
2023-04-02T12:48:10.348Z,49.04
2023-04-02T12:49:10.369Z,46.38
2023-04-02T12:50:10.455Z,47.17
2023-04-02T12:51:10.486Z,46.37
2023-04-02T12:52:10.565Z,47.43
2023-04-02T12:53:10.577Z,48.37